Time;durP1;ratioP1;P1;durP2;ratioP2;P2;SDS_P1;SDS_P2;PMS_P1;PMS_P2;Temp;Humidity;BMP_temperature;BMP_pressure;BME280_temperature;BME280_humidity;BME280_pressure;Samples;Min_cycle;Max_cycle;Signal;HPM_P1;HPM_P2
2023/07/26 00:01:57;;;;;;;4.50;2.97;;;14.20;99.90;;;;;;5062408;28;20207;-84
2023/07/26 00:04:24;;;;;;;5.28;2.60;;;14.20;99.90;;;;;;5065004;28;20273;-83
2023/07/26 00:06:51;;;;;;;6.05;3.63;;;14.10;99.90;;;;;;5070480;28;20239;-83
2023/07/26 00:09:19;;;;;;;4.15;2.53;;;14.10;99.90;;;;;;5065860;28;20242;-85
2023/07/26 00:11:46;;;;;;;4.00;2.35;;;14.10;99.90;;;;;;5061808;28;20591;-84
2023/07/26 00:14:14;;;;;;;4.90;3.08;;;14.10;99.90;;;;;;5059165;28;20219;-84
2023/07/26 00:16:41;;;;;;;6.57;3.05;;;14.10;99.90;;;;;;5062225;28;20497;-82
2023/07/26 00:19:09;;;;;;;5.22;2.40;;;14.00;99.90;;;;;;5053763;28;20243;-85
2023/07/26 00:21:36;;;;;;;5.35;2.30;;;14.00;99.90;;;;;;5061026;28;20710;-86
2023/07/26 00:24:03;;;;;;;3.50;2.78;;;14.00;99.90;;;;;;5061981;28;20211;-84
2023/07/26 00:26:30;;;;;;;4.45;2.50;;;14.00;99.90;;;;;;5062497;28;20203;-85
2023/07/26 00:28:56;;;;;;;6.35;2.50;;;13.90;99.90;;;;;;5061402;28;20247;-82
2023/07/26 00:31:25;;;;;;;5.25;2.83;;;13.90;99.90;;;;;;5057572;28;20644;-83
2023/07/26 00:33:52;;;;;;;4.25;2.70;;;13.90;99.90;;;;;;5060927;28;20302;-84
2023/07/26 00:36:19;;;;;;;4.22;3.15;;;13.80;99.90;;;;;;5056985;28;20640;-84
2023/07/26 00:38:46;;;;;;;4.18;2.67;;;13.80;99.90;;;;;;5064568;28;20287;-83
2023/07/26 00:41:13;;;;;;;4.43;2.88;;;13.80;99.90;;;;;;5064010;28;20302;-85
2023/07/26 00:43:40;;;;;;;5.05;2.78;;;13.70;99.90;;;;;;5060167;28;20270;-84
2023/07/26 00:46:08;;;;;;;6.50;3.08;;;13.80;99.90;;;;;;5058406;28;20238;-85
2023/07/26 00:48:37;;;;;;;6.30;3.00;;;13.80;99.90;;;;;;5062328;28;20597;-85
2023/07/26 00:51:05;;;;;;;4.65;2.72;;;13.90;99.90;;;;;;5062847;28;20223;-84
2023/07/26 00:53:33;;;;;;;9.43;2.60;;;13.90;99.90;;;;;;5060542;28;20281;-85
2023/07/26 00:56:00;;;;;;;4.68;2.78;;;13.90;99.90;;;;;;5061241;28;20209;-85
2023/07/26 00:58:27;;;;;;;9.48;2.80;;;13.90;99.90;;;;;;5064251;28;20219;-84
2023/07/26 01:00:55;;;;;;;4.85;2.80;;;13.90;99.90;;;;;;5061701;28;20290;-84
2023/07/26 01:03:22;;;;;;;6.38;3.35;;;13.90;99.90;;;;;;5061854;28;20286;-85
2023/07/26 01:06:02;;;;;;;5.80;3.38;;;13.90;99.90;;;;;;5062086;28;20209;-85
2023/07/26 01:08:38;;;;;;;8.45;3.00;;;14.00;99.90;;;;;;5061341;28;20229;-86
2023/07/26 01:11:11;;;;;;;4.38;3.20;;;13.90;99.90;;;;;;5060644;28;20211;-83
2023/07/26 01:13:45;;;;;;;5.47;3.17;;;13.90;99.90;;;;;;5063183;28;20203;-84
2023/07/26 01:16:13;;;;;;;5.22;3.05;;;13.80;99.90;;;;;;5062810;28;20295;-85
2023/07/26 01:18:41;;;;;;;4.97;3.20;;;13.80;99.90;;;;;;5062784;28;20634;-83
2023/07/26 01:21:09;;;;;;;4.13;3.03;;;13.90;99.90;;;;;;5062197;28;20308;-84
2023/07/26 01:23:38;;;;;;;5.07;3.13;;;13.80;99.90;;;;;;5062493;28;20581;-85
2023/07/26 01:26:06;;;;;;;3.80;2.70;;;13.90;99.90;;;;;;5054700;28;20275;-84
2023/07/26 01:28:32;;;;;;;4.55;2.55;;;13.90;99.90;;;;;;5055138;28;20229;-84
2023/07/26 01:31:01;;;;;;;5.18;2.45;;;13.80;99.90;;;;;;5059199;28;20220;-86
2023/07/26 01:33:30;;;;;;;3.67;2.50;;;13.90;99.90;;;;;;5058404;28;20202;-85
2023/07/26 01:35:59;;;;;;;3.45;2.20;;;13.90;99.90;;;;;;5056256;28;20207;-86
2023/07/26 01:38:26;;;;;;;7.97;2.45;;;13.80;99.90;;;;;;5056855;28;20302;-84
2023/07/26 01:40:55;;;;;;;6.63;3.40;;;13.90;99.90;;;;;;5059665;28;20234;-82
2023/07/26 01:43:22;;;;;;;5.10;3.25;;;14.00;99.90;;;;;;5060871;28;20203;-84
2023/07/26 01:45:49;;;;;;;6.15;2.70;;;14.00;99.90;;;;;;5053937;28;20317;-83
2023/07/26 01:48:16;;;;;;;6.47;2.50;;;13.80;99.90;;;;;;5058293;28;20313;-84
2023/07/26 01:50:43;;;;;;;5.05;2.00;;;13.90;99.90;;;;;;5058260;28;20203;-85
2023/07/26 01:53:09;;;;;;;5.85;2.80;;;13.80;99.90;;;;;;5069352;28;20705;-84
2023/07/26 01:55:36;;;;;;;5.10;2.58;;;13.80;99.90;;;;;;5071154;28;20263;-83
2023/07/26 01:58:04;;;;;;;3.80;2.88;;;13.90;99.90;;;;;;5064042;28;20262;-83
2023/07/26 02:00:31;;;;;;;7.57;3.40;;;13.90;99.90;;;;;;5070737;28;20226;-82
2023/07/26 02:02:58;;;;;;;6.22;2.50;;;13.90;99.90;;;;;;5070913;28;20241;-83
2023/07/26 02:05:25;;;;;;;5.47;4.10;;;13.90;99.90;;;;;;5076898;28;20217;-82
2023/07/26 02:07:52;;;;;;;4.13;2.80;;;13.90;99.90;;;;;;5077098;28;20211;-82
2023/07/26 02:10:19;;;;;;;4.38;2.83;;;13.90;99.90;;;;;;5077313;28;20188;-83
2023/07/26 02:12:45;;;;;;;5.47;3.17;;;13.90;99.90;;;;;;5075166;28;20203;-83
2023/07/26 02:15:14;;;;;;;5.32;3.40;;;13.90;99.90;;;;;;5074493;28;20223;-84
2023/07/26 02:17:40;;;;;;;4.70;2.25;;;13.90;99.90;;;;;;5068257;28;20227;-84
2023/07/26 02:20:09;;;;;;;9.10;2.95;;;13.90;99.90;;;;;;5070362;28;20254;-85
2023/07/26 02:22:35;;;;;;;5.97;3.35;;;13.90;99.90;;;;;;5068726;28;20211;-81
2023/07/26 02:25:02;;;;;;;4.57;2.88;;;13.80;99.90;;;;;;5071818;28;20254;-84
2023/07/26 02:27:29;;;;;;;3.85;2.80;;;13.90;99.90;;;;;;5069193;28;20218;-86
2023/07/26 02:29:56;;;;;;;4.68;3.10;;;13.80;99.90;;;;;;5067272;28;20210;-83
2023/07/26 02:32:24;;;;;;;4.10;2.30;;;13.80;99.90;;;;;;5069820;28;20211;-83
2023/07/26 02:34:53;;;;;;;6.60;3.10;;;13.90;99.90;;;;;;5070700;28;20277;-84
2023/07/26 02:37:20;;;;;;;3.97;2.63;;;13.90;99.90;;;;;;5064017;28;20575;-87
2023/07/26 02:39:46;;;;;;;4.38;2.75;;;13.90;99.90;;;;;;5056342;28;20223;-84
2023/07/26 02:42:13;;;;;;;7.72;3.00;;;13.90;99.90;;;;;;5059782;28;20264;-85
2023/07/26 02:44:40;;;;;;;5.55;3.05;;;13.90;99.90;;;;;;5065977;28;20235;-84
2023/07/26 02:47:07;;;;;;;5.63;3.30;;;13.80;99.90;;;;;;5065803;28;20287;-85
2023/07/26 02:49:35;;;;;;;10.45;4.05;;;13.90;99.90;;;;;;5059521;28;20237;-85
2023/07/26 02:52:02;;;;;;;5.53;3.25;;;13.80;99.90;;;;;;5057650;28;20199;-86
2023/07/26 02:54:29;;;;;;;4.93;3.80;;;13.80;99.90;;;;;;5060175;28;20811;-86
2023/07/26 02:56:55;;;;;;;5.45;2.83;;;13.80;99.90;;;;;;5058915;28;20295;-85
2023/07/26 02:59:22;;;;;;;4.85;3.42;;;13.70;99.90;;;;;;5052437;28;20220;-85
2023/07/26 03:01:49;;;;;;;7.72;3.30;;;13.80;99.90;;;;;;5055481;28;20255;-85
2023/07/26 03:04:16;;;;;;;4.60;3.40;;;13.80;99.90;;;;;;5058612;28;20553;-86
2023/07/26 03:06:44;;;;;;;3.55;3.17;;;13.80;99.90;;;;;;5059891;28;20906;-86
2023/07/26 03:09:11;;;;;;;7.28;2.60;;;13.90;99.90;;;;;;5058634;28;20267;-84
2023/07/26 03:11:38;;;;;;;4.22;3.35;;;13.80;99.90;;;;;;5058566;28;20230;-86
2023/07/26 03:14:05;;;;;;;7.15;3.05;;;13.80;99.90;;;;;;5057441;28;20202;-86
2023/07/26 03:16:32;;;;;;;8.57;3.40;;;13.80;99.90;;;;;;5058496;28;20644;-83
2023/07/26 03:18:58;;;;;;;5.20;3.30;;;13.80;99.90;;;;;;5059794;28;20728;-85
2023/07/26 03:21:25;;;;;;;5.60;3.40;;;13.80;99.90;;;;;;5058950;28;20261;-85
2023/07/26 03:23:53;;;;;;;5.90;3.00;;;13.90;99.90;;;;;;5059268;28;20266;-84
2023/07/26 03:26:20;;;;;;;5.10;3.28;;;13.70;99.90;;;;;;5056540;28;20206;-84
2023/07/26 03:28:47;;;;;;;3.65;2.88;;;13.70;99.90;;;;;;5058896;28;20250;-83
2023/07/26 03:31:14;;;;;;;5.25;2.90;;;13.70;99.90;;;;;;5055591;28;21833;-84
2023/07/26 03:33:41;;;;;;;9.18;3.50;;;13.70;99.90;;;;;;5055930;28;20656;-85
2023/07/26 03:36:08;;;;;;;10.20;4.70;;;13.70;99.90;;;;;;5057296;28;20215;-85
2023/07/26 03:38:35;;;;;;;4.82;2.80;;;13.70;99.90;;;;;;5052809;28;20227;-85
2023/07/26 03:41:03;;;;;;;4.80;3.22;;;13.80;99.90;;;;;;5058478;28;20227;-85
2023/07/26 03:43:29;;;;;;;4.13;3.17;;;13.80;99.90;;;;;;5056265;28;20712;-84
2023/07/26 03:45:56;;;;;;;6.00;3.42;;;13.80;99.90;;;;;;5064574;28;20228;-83
2023/07/26 03:48:23;;;;;;;10.65;3.90;;;13.80;99.90;;;;;;5061207;28;20634;-84
2023/07/26 03:50:50;;;;;;;8.57;3.58;;;13.80;99.90;;;;;;5062118;28;20669;-83
2023/07/26 03:53:17;;;;;;;5.00;3.67;;;13.80;99.90;;;;;;5060753;28;20282;-84
2023/07/26 03:55:44;;;;;;;7.05;2.90;;;13.80;99.90;;;;;;5061148;28;20243;-84
2023/07/26 03:58:12;;;;;;;4.88;3.40;;;13.80;99.90;;;;;;5057810;28;20258;-85
2023/07/26 04:00:39;;;;;;;5.97;4.15;;;13.80;99.90;;;;;;5052534;28;20314;-85
2023/07/26 04:03:06;;;;;;;5.68;3.03;;;13.80;99.90;;;;;;5054023;28;20306;-85
2023/07/26 04:05:33;;;;;;;4.28;2.30;;;13.90;99.90;;;;;;5055151;28;20287;-85
2023/07/26 04:08:00;;;;;;;4.25;2.65;;;13.90;99.90;;;;;;5057650;28;20338;-83
2023/07/26 04:10:28;;;;;;;4.90;3.38;;;13.90;99.90;;;;;;5056013;28;20730;-85
2023/07/26 04:12:55;;;;;;;7.28;3.10;;;13.90;99.90;;;;;;5055709;28;20656;-85
2023/07/26 04:15:23;;;;;;;3.78;3.15;;;14.00;99.90;;;;;;5062317;28;20210;-83
2023/07/26 04:17:50;;;;;;;10.27;4.07;;;14.00;99.90;;;;;;5060762;28;20330;-86
2023/07/26 04:20:17;;;;;;;5.72;3.28;;;14.00;99.90;;;;;;5062186;28;20314;-86
2023/07/26 04:22:44;;;;;;;4.70;2.92;;;14.10;99.90;;;;;;5078387;28;20254;-83
2023/07/26 04:25:11;;;;;;;7.18;3.55;;;14.10;99.90;;;;;;5077305;28;20195;-83
2023/07/26 04:34:08;;;;;;;6.25;3.13;;;14.20;99.90;;;;;;5072880;28;20265;-85
2023/07/26 04:36:35;;;;;;;4.88;2.55;;;14.20;99.90;;;;;;5072350;28;20215;-84
2023/07/26 04:39:02;;;;;;;3.15;2.55;;;14.30;99.90;;;;;;5074552;28;20466;-85
2023/07/26 04:41:28;;;;;;;5.45;2.90;;;14.50;99.90;;;;;;5072085;28;20243;-84
2023/07/26 04:43:55;;;;;;;4.05;3.17;;;14.40;99.90;;;;;;5072222;28;20211;-85
2023/07/26 04:46:22;;;;;;;9.50;3.78;;;14.50;99.90;;;;;;5072697;28;20683;-84
2023/07/26 04:48:49;;;;;;;4.10;2.85;;;14.60;99.90;;;;;;5071045;28;20246;-84
2023/07/26 04:51:17;;;;;;;3.80;2.95;;;14.70;99.90;;;;;;5073292;28;20215;-86
2023/07/26 04:53:44;;;;;;;5.80;4.57;;;14.70;99.90;;;;;;5073357;28;20199;-85
2023/07/26 04:58:52;;;;;;;4.70;3.17;;;14.70;99.90;;;;;;5073604;28;20258;-84
2023/07/26 05:01:19;;;;;;;6.70;3.40;;;14.80;99.90;;;;;;5074444;28;20251;-85
2023/07/26 05:03:46;;;;;;;7.32;3.72;;;14.70;99.90;;;;;;5070174;28;20218;-87
2023/07/26 05:06:13;;;;;;;5.43;3.92;;;14.70;99.90;;;;;;5064005;28;20278;-86
2023/07/26 05:08:42;;;;;;;4.50;3.40;;;14.70;99.90;;;;;;5066537;28;20224;-87
2023/07/26 05:11:08;;;;;;;10.57;3.80;;;14.80;99.90;;;;;;5065261;28;20258;-87
2023/07/26 05:13:35;;;;;;;5.43;3.58;;;14.70;99.90;;;;;;5064225;28;20227;-86
2023/07/26 05:16:02;;;;;;;9.02;3.67;;;14.70;99.90;;;;;;5064249;28;20203;-87
2023/07/26 05:18:29;;;;;;;6.07;3.85;;;14.70;99.90;;;;;;5063387;28;20224;-86
2023/07/26 05:20:56;;;;;;;5.57;3.67;;;14.70;99.90;;;;;;5069926;28;20275;-87
2023/07/26 05:23:23;;;;;;;6.63;4.75;;;14.70;99.90;;;;;;5068762;28;20199;-87
2023/07/26 05:25:51;;;;;;;6.40;4.13;;;14.80;99.90;;;;;;5063106;28;20290;-84
2023/07/26 05:28:18;;;;;;;6.15;4.65;;;14.80;99.90;;;;;;5060348;28;20701;-86
2023/07/26 05:30:45;;;;;;;4.50;3.63;;;14.80;99.90;;;;;;5059872;28;20293;-86
2023/07/26 05:33:12;;;;;;;5.65;3.50;;;14.90;99.90;;;;;;5062196;28;20719;-85
2023/07/26 05:35:40;;;;;;;9.15;4.30;;;15.10;99.90;;;;;;5067404;28;20221;-86
2023/07/26 05:38:07;;;;;;;5.43;4.28;;;15.00;99.90;;;;;;5067572;28;20231;-84
2023/07/26 05:40:34;;;;;;;4.97;3.50;;;15.00;99.90;;;;;;5067613;28;20208;-85
2023/07/26 05:43:02;;;;;;;11.02;5.05;;;15.10;99.90;;;;;;5068070;28;20240;-85
2023/07/26 05:45:29;;;;;;;4.63;3.88;;;15.10;99.90;;;;;;5067989;28;20205;-85
2023/07/26 05:47:56;;;;;;;4.25;3.83;;;15.20;99.90;;;;;;5068266;28;20228;-83
2023/07/26 05:50:23;;;;;;;6.47;4.25;;;15.20;99.90;;;;;;5072507;28;20230;-83
2023/07/26 05:52:50;;;;;;;5.18;3.97;;;15.40;99.90;;;;;;5077130;28;20188;-80
2023/07/26 05:55:17;;;;;;;5.15;3.95;;;15.40;99.90;;;;;;5076857;28;20200;-82
2023/07/26 05:57:44;;;;;;;8.18;5.22;;;15.40;99.90;;;;;;5073889;28;20200;-80
2023/07/26 06:00:14;;;;;;;5.60;4.60;;;15.40;99.90;;;;;;5074465;28;20204;-81
2023/07/26 06:02:41;;;;;;;5.30;4.40;;;15.40;99.90;;;;;;5076802;28;20212;-81
2023/07/26 06:05:08;;;;;;;8.60;4.20;;;15.50;99.90;;;;;;5076244;28;20192;-81
2023/07/26 06:07:35;;;;;;;10.35;4.38;;;15.60;99.90;;;;;;5073044;28;20238;-82
2023/07/26 06:10:03;;;;;;;6.03;3.85;;;15.80;99.90;;;;;;5075592;28;20222;-80
2023/07/26 06:12:30;;;;;;;9.25;5.15;;;15.80;99.90;;;;;;5068671;28;20236;-86
2023/07/26 06:14:57;;;;;;;9.77;4.72;;;15.90;99.90;;;;;;5062110;28;20251;-84
2023/07/26 06:17:25;;;;;;;8.52;5.05;;;16.00;99.90;;;;;;5066244;28;20221;-84
2023/07/26 06:19:53;;;;;;;8.68;4.00;;;16.00;99.90;;;;;;5062451;28;20223;-87
2023/07/26 06:22:20;;;;;;;7.38;4.22;;;16.20;99.90;;;;;;5057892;28;20596;-85
2023/07/26 06:24:47;;;;;;;5.00;3.50;;;16.30;99.90;;;;;;5060241;28;20209;-84
2023/07/26 06:27:13;;;;;;;7.57;4.10;;;16.50;99.90;;;;;;5058541;28;20336;-86
2023/07/26 06:29:40;;;;;;;8.40;3.97;;;16.60;99.90;;;;;;5058503;28;21006;-86
2023/07/26 06:32:10;;;;;;;6.53;3.87;;;17.00;99.90;;;;;;5059587;28;20231;-86
2023/07/26 06:38:23;;;;;;;3.40;2.70;;;19.80;99.90;;;;;;5060553;28;20476;-86
2023/07/26 06:40:53;;;;;;;3.90;2.67;;;21.70;99.90;;;;;;5000572;28;20453;-89
2023/07/26 06:44:18;;;;;;;6.17;3.00;;;22.70;99.90;;;;;;4994009;28;20483;-86
2023/07/26 06:49:48;;;;;;;5.80;2.60;;;24.10;94.80;;;;;;5067355;23;20514;-71
2023/07/26 06:52:17;;;;;;;4.10;2.37;;;25.00;93.50;;;;;;5057806;28;20453;-75
2023/07/26 06:54:44;;;;;;;5.20;3.10;;;25.60;91.80;;;;;;5032321;28;20462;-74
2023/07/26 06:57:10;;;;;;;3.53;2.73;;;26.50;90.60;;;;;;5033023;28;20584;-77
2023/07/26 06:59:39;;;;;;;5.63;2.77;;;27.10;88.40;;;;;;5039950;28;20439;-77
2023/07/26 07:02:07;;;;;;;4.27;3.60;;;26.70;88.10;;;;;;5060222;28;20470;-74
2023/07/26 07:04:34;;;;;;;5.60;3.03;;;26.30;88.00;;;;;;5037330;28;20575;-75
2023/07/26 07:07:02;;;;;;;5.53;3.73;;;25.80;89.40;;;;;;5040569;28;20535;-76
2023/07/26 07:09:30;;;;;;;6.57;3.00;;;25.50;90.00;;;;;;5030691;28;20938;-76
2023/07/26 07:11:57;;;;;;;6.57;2.63;;;25.30;90.30;;;;;;5027269;28;20458;-75
2023/07/26 07:14:24;;;;;;;9.13;2.83;;;25.10;90.30;;;;;;5043477;28;20494;-75
2023/07/26 07:16:51;;;;;;;4.63;2.83;;;24.70;90.70;;;;;;5032985;28;20462;-76
2023/07/26 07:19:18;;;;;;;4.20;2.30;;;24.70;91.00;;;;;;5041553;28;20549;-76
2023/07/26 07:21:52;;;;;;;8.67;2.83;;;24.60;90.70;;;;;;5035816;28;20487;-77
2023/07/26 07:24:19;;;;;;;7.90;2.93;;;24.20;90.70;;;;;;5036213;28;20465;-77
2023/07/26 07:26:47;;;;;;;8.13;3.20;;;23.60;91.40;;;;;;5046336;28;20519;-75
2023/07/26 07:29:15;;;;;;;5.47;3.00;;;23.30;92.30;;;;;;5042935;28;20942;-76
2023/07/26 07:31:42;;;;;;;3.73;3.07;;;24.30;91.40;;;;;;5042744;28;20443;-76
2023/07/26 07:34:09;;;;;;;7.27;2.60;;;25.70;89.30;;;;;;5042056;28;20855;-75
2023/07/26 07:36:36;;;;;;;3.33;1.90;;;26.00;87.60;;;;;;5049241;28;20998;-76
2023/07/26 07:39:05;;;;;;;4.30;2.40;;;25.60;86.60;;;;;;5043296;28;20437;-74
2023/07/26 07:41:32;;;;;;;3.13;1.53;;;25.00;88.00;;;;;;5041437;28;20482;-76
2023/07/26 07:44:00;;;;;;;5.70;2.23;;;25.80;87.80;;;;;;5046341;28;20516;-77
2023/07/26 07:46:28;;;;;;;6.17;2.63;;;27.10;85.00;;;;;;5035239;28;20448;-75
2023/07/26 07:48:55;;;;;;;3.53;1.80;;;28.20;81.90;;;;;;5044397;28;20511;-76
2023/07/26 07:51:22;;;;;;;3.07;2.50;;;29.10;78.70;;;;;;5035157;28;20518;-75
2023/07/26 07:53:49;;;;;;;4.30;2.07;;;29.10;77.30;;;;;;5042349;28;20906;-78
2023/07/26 07:56:16;;;;;;;2.00;1.70;;;28.50;77.80;;;;;;5050037;28;20532;-77
2023/07/26 07:58:43;;;;;;;2.67;2.17;;;29.00;77.10;;;;;;5029361;28;20621;-77
2023/07/26 08:01:12;;;;;;;3.57;1.80;;;28.90;76.50;;;;;;5048974;28;20448;-77
2023/07/26 08:03:39;;;;;;;4.57;2.63;;;28.70;76.00;;;;;;5045306;28;20470;-76
2023/07/26 08:06:06;;;;;;;4.83;3.33;;;28.70;75.90;;;;;;5039765;28;20479;-75
2023/07/26 08:08:33;;;;;;;7.53;2.00;;;28.40;78.00;;;;;;5046847;28;20530;-75
2023/07/26 08:10:59;;;;;;;3.57;2.23;;;29.20;76.90;;;;;;5042947;28;20956;-76
2023/07/26 08:13:26;;;;;;;5.30;2.10;;;30.10;73.90;;;;;;5037787;28;20519;-75
2023/07/26 08:15:53;;;;;;;3.67;2.00;;;30.00;71.00;;;;;;5040920;28;20465;-73
2023/07/26 08:18:21;;;;;;;3.80;2.10;;;29.70;71.80;;;;;;5040835;28;20533;-75
2023/07/26 08:20:48;;;;;;;2.37;1.70;;;29.00;73.40;;;;;;5044395;28;20447;-73
2023/07/26 08:23:16;;;;;;;3.40;1.90;;;28.70;72.20;;;;;;5044632;28;20964;-76
2023/07/26 08:25:43;;;;;;;1.87;1.43;;;27.90;72.70;;;;;;5036365;28;20482;-76
2023/07/26 08:28:10;;;;;;;4.97;1.87;;;27.70;74.80;;;;;;5035804;28;20973;-75
2023/07/26 08:30:38;;;;;;;5.23;2.43;;;28.20;74.30;;;;;;5035037;28;20529;-74
2023/07/26 08:33:05;;;;;;;3.90;2.30;;;27.60;75.30;;;;;;5034844;28;20498;-76
2023/07/26 08:35:34;;;;;;;4.70;2.33;;;28.20;74.70;;;;;;5023829;28;20534;-76
2023/07/26 08:38:00;;;;;;;4.13;2.70;;;28.30;74.10;;;;;;5036814;28;20873;-75
2023/07/26 08:40:27;;;;;;;2.63;1.90;;;27.70;74.90;;;;;;5041174;28;20518;-77
2023/07/26 08:42:56;;;;;;;2.87;1.80;;;27.60;76.20;;;;;;5050040;28;20612;-75
2023/07/26 08:45:26;;;;;;;3.37;1.73;;;27.40;76.00;;;;;;5051497;28;20496;-78
2023/07/26 08:47:54;;;;;;;3.83;1.90;;;26.90;75.20;;;;;;5058095;28;20459;-77
2023/07/26 08:50:22;;;;;;;4.60;2.37;;;25.80;77.50;;;;;;5035708;28;20518;-75
2023/07/26 08:52:50;;;;;;;3.80;2.30;;;24.90;80.00;;;;;;5043068;28;20545;-76
2023/07/26 08:55:18;;;;;;;2.03;1.67;;;24.50;82.30;;;;;;5030940;28;20504;-75
2023/07/26 08:57:45;;;;;;;4.40;1.73;;;25.40;81.10;;;;;;5043204;28;20451;-76
2023/07/26 09:00:13;;;;;;;7.00;2.17;;;25.60;79.20;;;;;;5037506;28;20486;-76
2023/07/26 09:02:45;;;;;;;3.23;2.30;;;25.70;79.30;;;;;;5037480;28;20996;-77
2023/07/26 09:05:12;;;;;;;2.70;1.80;;;25.20;79.70;;;;;;5048952;28;20453;-76
2023/07/26 09:07:39;;;;;;;4.10;2.17;;;24.10;81.20;;;;;;5039880;28;20523;-76
2023/07/26 09:10:08;;;;;;;3.30;2.13;;;23.80;83.30;;;;;;5042523;28;20442;-75
2023/07/26 09:12:34;;;;;;;4.20;2.30;;;23.80;84.30;;;;;;5055932;28;20461;-74
2023/07/26 09:15:06;;;;;;;2.70;1.80;;;23.70;84.70;;;;;;5053990;28;20435;-76
2023/07/26 09:17:40;;;;;;;2.33;1.93;;;23.40;85.10;;;;;;5044054;28;20451;-75
2023/07/26 09:20:20;;;;;;;2.97;2.30;;;22.70;85.80;;;;;;5051769;28;20525;-73
2023/07/26 09:22:47;;;;;;;3.20;2.60;;;22.30;88.60;;;;;;5015882;28;20496;-75
2023/07/26 09:25:31;;;;;;;3.03;1.80;;;21.10;93.30;;;;;;5038168;28;20448;-75
2023/07/26 09:27:58;;;;;;;3.60;2.10;;;20.50;95.50;;;;;;5029744;28;20458;-75
2023/07/26 09:30:26;;;;;;;14.20;2.30;;;20.40;97.20;;;;;;5040471;28;20804;-75
2023/07/26 09:32:54;;;;;;;3.60;1.57;;;20.50;96.70;;;;;;5036567;28;20494;-75
2023/07/26 09:35:21;;;;;;;2.60;1.90;;;21.10;96.00;;;;;;5038771;28;20464;-76
2023/07/26 09:37:50;;;;;;;2.50;1.63;;;21.60;96.10;;;;;;5043050;28;20442;-75
2023/07/26 09:40:32;;;;;;;3.73;1.90;;;22.60;95.00;;;;;;5041143;28;20932;-76
2023/07/26 09:42:59;;;;;;;5.90;2.93;;;23.20;92.70;;;;;;5031712;28;20498;-76
2023/07/26 09:45:26;;;;;;;2.87;1.70;;;24.20;91.10;;;;;;5042732;28;20464;-76
2023/07/26 09:47:53;;;;;;;3.90;1.80;;;24.60;90.00;;;;;;5038018;28;20489;-77
2023/07/26 09:50:26;;;;;;;3.57;2.00;;;25.40;87.10;;;;;;5036606;28;20466;-76
2023/07/26 09:52:54;;;;;;;4.60;2.10;;;26.60;83.80;;;;;;5041854;28;20959;-77
2023/07/26 09:55:24;;;;;;;7.87;2.50;;;27.00;80.60;;;;;;5042940;28;20463;-77
2023/07/26 09:57:53;;;;;;;4.57;1.60;;;27.00;78.90;;;;;;5034325;28;20506;-76
2023/07/26 10:00:23;;;;;;;2.80;1.87;;;26.50;78.10;;;;;;5041681;28;20526;-76
2023/07/26 10:03:03;;;;;;;2.97;1.80;;;26.70;79.30;;;;;;5038339;28;20482;-77
2023/07/26 10:05:35;;;;;;;3.10;1.90;;;27.20;77.00;;;;;;5039943;28;20438;-76
2023/07/26 10:08:03;;;;;;;1.70;1.47;;;27.20;76.00;;;;;;5040786;28;20489;-77
2023/07/26 10:10:32;;;;;;;4.00;2.10;;;26.00;76.70;;;;;;5040022;28;20443;-76
2023/07/26 10:13:01;;;;;;;2.70;1.60;;;25.70;78.20;;;;;;5039684;28;20828;-77
2023/07/26 10:15:30;;;;;;;2.27;2.07;;;25.90;78.30;;;;;;5041561;28;20458;-76
2023/07/26 10:17:58;;;;;;;3.80;1.90;;;26.50;77.40;;;;;;5048807;28;20508;-75
2023/07/26 10:20:25;;;;;;;5.50;2.30;;;26.60;75.80;;;;;;5041784;28;20455;-77
2023/07/26 10:22:53;;;;;;;4.13;2.07;;;26.50;76.40;;;;;;5037266;28;20573;-77
2023/07/26 10:25:20;;;;;;;2.60;1.93;;;26.00;76.80;;;;;;5043985;28;20953;-77
2023/07/26 10:27:49;;;;;;;2.10;1.90;;;26.50;77.40;;;;;;5040334;28;20486;-76
2023/07/26 10:30:16;;;;;;;2.37;1.80;;;26.40;75.90;;;;;;5041340;28;20882;-76
2023/07/26 10:32:47;;;;;;;2.30;1.83;;;25.30;77.20;;;;;;5036860;28;20530;-77
2023/07/26 10:35:27;;;;;;;3.13;2.13;;;24.60;78.10;;;;;;5030025;28;20446;-79
2023/07/26 10:37:56;;;;;;;3.63;2.33;;;24.00;80.40;;;;;;5029600;28;20543;-78
2023/07/26 10:40:31;;;;;;;4.13;2.27;;;23.00;83.30;;;;;;5067788;28;20458;-77
2023/07/26 10:43:00;;;;;;;2.77;1.57;;;22.50;85.90;;;;;;5037212;28;20497;-76
2023/07/26 10:45:42;;;;;;;2.57;1.97;;;22.00;87.60;;;;;;5038224;28;20456;-75
2023/07/26 10:48:26;;;;;;;2.37;1.80;;;22.00;88.40;;;;;;5038613;28;20893;-76
2023/07/26 10:50:56;;;;;;;2.57;1.60;;;21.80;88.60;;;;;;5028860;28;20451;-75
2023/07/26 10:53:31;;;;;;;3.90;2.03;;;21.70;88.50;;;;;;5038296;28;20551;-76
2023/07/26 10:56:12;;;;;;;3.77;3.07;;;22.00;88.30;;;;;;5035063;28;20457;-76
2023/07/26 10:58:51;;;;;;;2.50;1.77;;;22.60;87.20;;;;;;5027963;28;20542;-76
2023/07/26 11:01:32;;;;;;;1.60;1.50;;;23.10;87.20;;;;;;5029751;28;20516;-77
2023/07/26 11:03:59;;;;;;;2.03;1.53;;;23.30;84.40;;;;;;5030491;28;20498;-76
2023/07/26 11:06:50;;;;;;;1.87;1.43;;;23.10;83.20;;;;;;5033978;28;20454;-76
2023/07/26 11:09:21;;;;;;;3.27;1.83;;;22.70;84.70;;;;;;5029589;28;20443;-77
2023/07/26 11:11:58;;;;;;;2.10;1.90;;;22.70;84.40;;;;;;5041814;28;20524;-76
2023/07/26 11:14:28;;;;;;;2.30;1.87;;;22.90;84.00;;;;;;5036639;28;20589;-75
2023/07/26 11:16:56;;;;;;;2.47;1.80;;;23.30;84.50;;;;;;5030836;28;20542;-76
2023/07/26 11:19:23;;;;;;;4.87;2.20;;;23.50;84.00;;;;;;5033718;28;20442;-77
2023/07/26 11:21:50;;;;;;;2.43;1.90;;;23.50;84.20;;;;;;5021629;28;20479;-76
2023/07/26 11:24:17;;;;;;;2.50;1.80;;;23.10;84.60;;;;;;5049117;28;20569;-76
2023/07/26 11:26:45;;;;;;;3.40;1.80;;;22.60;86.10;;;;;;5035149;28;20560;-76
2023/07/26 11:29:12;;;;;;;2.67;2.00;;;22.50;87.20;;;;;;5038341;28;20856;-76
2023/07/26 11:31:41;;;;;;;2.30;1.50;;;22.30;86.30;;;;;;5044300;28;20513;-76
2023/07/26 11:34:16;;;;;;;2.50;1.70;;;22.10;86.90;;;;;;5037342;28;20539;-76
2023/07/26 11:36:43;;;;;;;2.50;2.00;;;22.00;88.30;;;;;;5040184;28;20457;-76
2023/07/26 11:39:20;;;;;;;2.27;1.97;;;21.80;90.30;;;;;;5053246;28;20442;-76
2023/07/26 11:41:47;;;;;;;2.87;1.77;;;21.60;91.70;;;;;;5045116;28;20599;-78
2023/07/26 11:44:15;;;;;;;3.20;2.23;;;21.50;92.50;;;;;;5044755;28;21054;-76
2023/07/26 11:46:44;;;;;;;3.77;2.47;;;21.50;93.10;;;;;;5041339;28;20505;-76
2023/07/26 11:49:20;;;;;;;4.07;2.43;;;21.60;92.80;;;;;;5040240;28;20538;-75
2023/07/26 11:51:48;;;;;;;3.30;1.50;;;21.70;91.90;;;;;;5043568;28;20454;-76
2023/07/26 11:54:14;;;;;;;2.00;1.60;;;21.90;92.30;;;;;;5038184;28;20465;-75
2023/07/26 11:56:42;;;;;;;2.57;1.60;;;21.90;91.70;;;;;;5050834;28;20464;-76
2023/07/26 11:59:09;;;;;;;2.33;1.67;;;21.80;92.00;;;;;;5049630;28;20480;-76
2023/07/26 12:01:37;;;;;;;2.33;1.80;;;21.80;92.10;;;;;;5053658;28;20532;-76
2023/07/26 12:04:17;;;;;;;4.13;3.33;;;21.70;92.30;;;;;;5044929;28;20566;-77
2023/07/26 12:06:46;;;;;;;2.60;1.80;;;21.70;92.30;;;;;;5055944;28;20456;-76
2023/07/26 12:09:14;;;;;;;2.20;1.63;;;21.80;91.60;;;;;;5056923;28;20449;-76
2023/07/26 12:11:42;;;;;;;1.43;1.00;;;22.10;91.60;;;;;;5061599;28;20459;-77
2023/07/26 12:14:15;;;;;;;1.43;1.00;;;22.10;88.60;;;;;;5063370;28;20453;-75
2023/07/26 12:16:49;;;;;;;1.63;1.20;;;22.30;88.50;;;;;;5052664;28;20481;-75
2023/07/26 12:19:20;;;;;;;1.90;1.33;;;22.60;87.30;;;;;;5044258;28;20446;-76
2023/07/26 12:21:48;;;;;;;2.03;1.10;;;22.50;85.00;;;;;;5033430;28;20463;-76
2023/07/26 12:24:15;;;;;;;1.20;0.83;;;22.40;84.60;;;;;;5033358;28;20497;-76
2023/07/26 12:26:45;;;;;;;2.60;2.10;;;22.50;84.60;;;;;;5034306;28;20555;-75
2023/07/26 12:29:12;;;;;;;2.60;1.60;;;22.50;84.80;;;;;;5039164;28;20450;-75
2023/07/26 12:31:39;;;;;;;1.40;1.10;;;22.60;85.60;;;;;;5035724;28;20477;-76
2023/07/26 12:34:08;;;;;;;2.27;1.90;;;22.70;84.60;;;;;;5044199;28;20511;-76
2023/07/26 12:36:48;;;;;;;1.40;1.10;;;22.70;84.40;;;;;;5048631;28;20532;-74
2023/07/26 12:39:17;;;;;;;4.43;1.50;;;23.00;83.70;;;;;;5067393;28;20448;-76
2023/07/26 12:41:44;;;;;;;2.03;1.37;;;23.20;82.30;;;;;;5037736;28;20869;-76
2023/07/26 12:44:12;;;;;;;3.00;1.50;;;23.20;82.50;;;;;;5054574;28;20575;-76
2023/07/26 12:46:41;;;;;;;2.53;1.93;;;23.10;83.00;;;;;;5034475;28;20866;-75
2023/07/26 12:49:10;;;;;;;2.70;1.40;;;23.20;84.10;;;;;;5028173;28;20463;-75
2023/07/26 12:51:38;;;;;;;1.73;1.30;;;23.40;83.40;;;;;;5047660;28;20451;-77
2023/07/26 12:54:06;;;;;;;3.13;1.47;;;23.30;83.10;;;;;;5045698;28;20471;-77
2023/07/26 12:56:33;;;;;;;2.10;1.30;;;23.20;83.70;;;;;;5051644;28;20504;-77
2023/07/26 12:59:00;;;;;;;4.00;1.40;;;23.00;84.30;;;;;;5039940;28;20816;-76
2023/07/26 13:01:27;;;;;;;1.67;1.50;;;22.90;84.90;;;;;;5042913;28;20453;-77
2023/07/26 13:03:54;;;;;;;3.80;1.63;;;22.60;85.30;;;;;;5036589;28;20524;-77
2023/07/26 13:06:21;;;;;;;1.60;1.33;;;22.30;85.30;;;;;;5037793;28;20450;-77
2023/07/26 13:08:48;;;;;;;1.73;1.60;;;22.40;86.80;;;;;;5041436;28;20515;-76